createdAt,value
2022-09-16T00:01:35.161Z,97345.09
2022-09-16T00:06:37.025Z,97350.97
2022-09-16T00:11:38.889Z,97350.59
2022-09-16T00:16:40.749Z,97344.41
2022-09-16T00:21:42.765Z,97346.03
2022-09-16T00:26:44.636Z,97350.00
2022-09-16T00:31:46.648Z,97355.13
2022-09-16T00:36:48.513Z,97360.19
2022-09-16T00:41:50.668Z,97353.16
2022-09-16T00:46:54.094Z,97347.75
2022-09-16T00:52:05.781Z,97358.69
2022-09-16T00:57:11.008Z,97365.75
2022-09-16T01:02:17.918Z,97361.53
2022-09-16T01:07:44.508Z,97356.50
2022-09-16T01:12:49.838Z,97351.47
2022-09-16T01:18:06.759Z,97353.41
2022-09-16T01:23:56.511Z,97353.47
2022-09-16T01:29:10.336Z,97348.78
2022-09-16T01:34:36.839Z,97353.44
2022-09-16T01:39:44.651Z,97363.63
2022-09-16T01:45:03.191Z,97368.69
2022-09-16T01:50:30.449Z,97370.25
2022-09-16T01:55:46.889Z,97370.28
2022-09-16T02:00:52.100Z,97378.75
2022-09-16T02:05:58.631Z,97364.69
2022-09-16T02:11:04.949Z,97371.31
2022-09-16T02:16:39.761Z,97375.19
2022-09-16T02:21:45.815Z,97360.28
2022-09-16T02:26:56.602Z,97359.44
2022-09-16T02:32:01.280Z,97366.44
2022-09-16T02:37:08.385Z,97373.50
2022-09-16T02:42:10.693Z,97371.28
2022-09-16T02:47:31.676Z,97365.88
2022-09-16T02:53:02.571Z,97372.91
2022-09-16T02:58:07.953Z,97370.59
2022-09-16T03:03:10.105Z,97373.66
2022-09-16T03:08:11.990Z,97375.63
2022-09-16T03:13:27.371Z,97357.31
2022-09-16T03:18:41.315Z,97352.59
2022-09-16T03:23:52.310Z,97358.81
2022-09-16T03:29:09.851Z,97361.47
2022-09-16T03:34:21.412Z,97353.41
2022-09-16T03:39:23.399Z,97352.66
2022-09-16T03:44:32.850Z,97358.91
2022-09-16T03:49:35.554Z,97357.38
2022-09-16T03:54:39.109Z,97357.38
2022-09-16T03:59:42.120Z,97354.66
2022-09-16T04:04:43.917Z,97350.53
2022-09-16T04:09:45.817Z,97352.94
2022-09-16T04:14:47.623Z,97356.91
2022-09-16T04:19:50.071Z,97356.50
2022-09-16T04:24:51.930Z,97356.09
2022-09-16T04:29:53.711Z,97357.75
2022-09-16T04:34:55.509Z,97354.66
2022-09-16T04:40:01.104Z,97363.19
2022-09-16T04:45:06.889Z,97362.34
2022-09-16T04:50:09.854Z,97370.94
2022-09-16T04:55:11.701Z,97370.97
2022-09-16T05:00:13.976Z,97370.94
2022-09-16T05:05:17.331Z,97370.13
2022-09-16T05:10:19.248Z,97375.97
2022-09-16T05:15:21.220Z,97383.69
2022-09-16T05:20:23.335Z,97383.28
2022-09-16T05:25:25.165Z,97387.16
2022-09-16T05:30:26.983Z,97380.88
2022-09-16T05:35:28.842Z,97388.97
2022-09-16T05:40:30.713Z,97395.16
2022-09-16T05:45:32.810Z,97384.63
2022-09-16T05:50:34.675Z,97384.66
2022-09-16T05:55:36.470Z,97380.88
2022-09-16T06:00:38.250Z,97377.50
2022-09-16T06:05:45.017Z,97383.34
2022-09-16T06:10:47.559Z,97386.50
2022-09-16T06:15:51.527Z,97379.88
2022-09-16T06:20:53.653Z,97383.34
2022-09-16T06:26:10.131Z,97370.13
2022-09-16T06:31:14.858Z,97374.84
2022-09-16T06:36:19.419Z,97381.09
2022-09-16T06:41:22.295Z,97380.69
2022-09-16T06:46:27.228Z,97387.28
2022-09-16T06:51:31.365Z,97386.88
2022-09-16T06:56:37.940Z,97382.50
2022-09-16T07:01:40.330Z,97378.22
2022-09-16T07:07:08.158Z,97367.69
2022-09-16T07:12:05.120Z,97375.31
2022-09-16T07:17:09.151Z,97381.06
2022-09-16T07:22:11.618Z,97386.13
2022-09-16T07:27:13.926Z,97386.13
2022-09-16T07:32:15.887Z,97380.97
2022-09-16T07:37:19.597Z,97392.19
2022-09-16T07:42:23.691Z,97389.78
2022-09-16T07:47:25.569Z,97392.81
2022-09-16T07:52:29.537Z,97394.31
2022-09-16T07:57:31.333Z,97387.28
2022-09-16T08:02:33.197Z,97398.56
2022-09-16T08:07:35.530Z,97389.44
2022-09-16T08:12:37.370Z,97386.22
2022-09-16T08:17:39.243Z,97389.28
2022-09-16T08:22:41.078Z,97390.13
2022-09-16T08:27:42.899Z,97381.59
2022-09-16T08:32:44.792Z,97379.47
2022-09-16T08:37:50.033Z,97374.91
2022-09-16T08:43:16.603Z,97375.75
2022-09-16T08:48:43.957Z,97371.75
2022-09-16T08:53:45.692Z,97380.03
2022-09-16T08:58:54.060Z,97373.91
2022-09-16T09:03:56.530Z,97373.97
2022-09-16T09:09:36.318Z,97387.19
2022-09-16T09:15:00.459Z,97384.78
2022-09-16T09:20:29.456Z,97379.38
2022-09-16T09:25:49.122Z,97375.47
2022-09-16T09:31:21.409Z,97379.88
2022-09-16T09:36:32.109Z,97372.63
2022-09-16T09:41:46.687Z,97374.09
2022-09-16T09:46:54.661Z,97364.28
2022-09-16T09:52:17.409Z,97368.50
2022-09-16T09:57:25.226Z,97360.22
2022-09-16T10:02:27.235Z,97348.47
2022-09-16T10:07:29.474Z,97346.66
2022-09-16T10:12:36.323Z,97333.78
2022-09-16T10:17:38.210Z,97341.53
2022-09-16T10:22:40.060Z,97346.16
2022-09-16T10:27:42.130Z,97335.59
2022-09-16T10:33:02.172Z,97327.91
2022-09-16T10:38:17.510Z,97322.47
2022-09-16T10:43:19.509Z,97361.59
2022-09-16T10:48:26.462Z,97363.00
2022-09-16T10:53:44.094Z,97359.91
2022-09-16T10:58:46.604Z,97356.69
2022-09-16T11:03:51.109Z,97354.50
2022-09-16T11:09:08.191Z,97345.94
2022-09-16T11:14:37.754Z,97346.91
2022-09-16T11:20:01.222Z,97341.16
2022-09-16T11:25:08.885Z,97335.56
2022-09-16T11:30:18.165Z,97333.22
2022-09-16T11:35:46.180Z,97332.22
2022-09-16T11:41:03.891Z,97334.69
2022-09-16T11:46:16.197Z,97338.50
2022-09-16T11:51:51.149Z,97337.75
2022-09-16T11:57:00.717Z,97322.41
2022-09-16T12:02:39.740Z,97337.09
2022-09-16T12:07:51.296Z,97325.44
2022-09-16T12:12:59.126Z,97317.13
2022-09-16T12:18:18.301Z,97313.59
2022-09-16T12:23:26.791Z,97309.28
2022-09-16T12:28:50.221Z,97311.19
2022-09-16T12:34:12.034Z,97293.75
2022-09-16T12:39:14.157Z,97294.97
2022-09-16T12:44:34.394Z,97288.78
2022-09-16T12:50:00.854Z,97265.91
2022-09-16T12:55:38.210Z,97262.09
2022-09-16T13:00:53.804Z,97261.78
2022-09-16T13:05:58.504Z,97257.47
2022-09-16T13:11:40.004Z,97254.72
2022-09-16T13:16:37.118Z,97247.00
2022-09-16T13:21:44.646Z,97246.28
2022-09-16T13:26:46.895Z,97242.81
2022-09-16T13:31:49.042Z,97250.00
2022-09-16T13:36:51.002Z,97245.13
2022-09-16T13:41:52.804Z,97251.72
2022-09-16T13:46:54.927Z,97229.94
2022-09-16T13:51:56.897Z,97239.78
2022-09-16T13:57:21.750Z,97233.66
2022-09-16T14:02:35.685Z,97225.16
2022-09-16T14:07:58.274Z,97241.22
2022-09-16T14:13:14.202Z,97240.75
2022-09-16T14:18:20.756Z,97233.69
2022-09-16T14:23:24.718Z,97236.88
2022-09-16T14:28:28.483Z,97244.78
2022-09-16T14:33:55.650Z,97244.88
2022-09-16T14:39:14.155Z,97228.13
2022-09-16T14:44:19.065Z,97239.19
2022-09-16T14:49:22.093Z,97235.94
2022-09-16T14:54:25.803Z,97228.22
2022-09-16T14:59:42.030Z,97223.63
2022-09-16T15:04:47.510Z,97228.00
2022-09-16T15:10:00.221Z,97225.41
2022-09-16T15:15:24.960Z,97233.13
2022-09-16T15:20:31.840Z,97226.94
2022-09-16T15:25:37.812Z,97228.69
2022-09-16T15:30:49.111Z,97228.75
2022-09-16T15:35:53.006Z,97238.81
2022-09-16T15:41:03.236Z,97217.19
2022-09-16T15:46:18.262Z,97218.75
2022-09-16T15:51:44.963Z,97208.28
2022-09-16T15:57:04.191Z,97211.84
2022-09-16T16:02:24.436Z,97217.22
2022-09-16T16:07:52.718Z,97228.69
2022-09-16T16:12:55.579Z,97225.94
2022-09-16T16:18:00.377Z,97229.28
2022-09-16T16:23:02.387Z,97231.69
2022-09-16T16:28:04.607Z,97229.56
2022-09-16T16:33:09.216Z,97229.81
2022-09-16T16:38:11.517Z,97232.00
2022-09-16T16:43:13.356Z,97228.56
2022-09-16T16:48:15.194Z,97235.56
2022-09-16T16:53:16.990Z,97229.75
2022-09-16T16:58:19.261Z,97237.47
2022-09-16T17:03:22.764Z,97234.50
2022-09-16T17:08:24.561Z,97234.00
2022-09-16T17:13:26.348Z,97233.28
2022-09-16T17:18:28.293Z,97250.50
2022-09-16T17:23:30.401Z,97238.75
2022-09-16T17:28:32.641Z,97243.59
2022-09-16T17:33:34.474Z,97236.63
2022-09-16T17:38:36.816Z,97233.59
2022-09-16T17:43:39.663Z,97239.88
2022-09-16T17:48:43.107Z,97243.50
2022-09-16T17:53:46.177Z,97242.41
2022-09-16T17:58:48.548Z,97238.75
2022-09-16T18:03:52.822Z,97237.41
2022-09-16T18:08:55.559Z,97249.94
2022-09-16T18:14:00.138Z,97248.00
2022-09-16T18:19:03.105Z,97249.56
2022-09-16T18:24:11.346Z,97242.97
2022-09-16T18:29:14.438Z,97253.28
2022-09-16T18:34:17.919Z,97254.53
2022-09-16T18:39:19.893Z,97257.28
2022-09-16T18:44:26.272Z,97257.72
2022-09-16T18:49:30.226Z,97260.13
2022-09-16T18:54:33.521Z,97260.50
2022-09-16T18:59:37.013Z,97264.47
2022-09-16T19:04:43.047Z,97259.88
2022-09-16T19:09:46.249Z,97267.78
2022-09-16T19:14:48.410Z,97262.38
2022-09-16T19:19:51.209Z,97262.94
2022-09-16T19:24:54.467Z,97270.38
2022-09-16T19:29:56.284Z,97267.28
2022-09-16T19:34:58.070Z,97268.91
2022-09-16T19:39:59.878Z,97276.69
2022-09-16T19:45:01.867Z,97277.00
2022-09-16T19:50:04.074Z,97276.13
2022-09-16T19:55:06.485Z,97279.97
2022-09-16T20:00:14.200Z,97275.00
2022-09-16T20:05:16.007Z,97278.16
2022-09-16T20:10:18.314Z,97285.09
2022-09-16T20:15:20.102Z,97271.16
2022-09-16T20:20:22.271Z,97267.31
2022-09-16T20:25:24.041Z,97263.47
2022-09-16T20:30:25.858Z,97257.03
2022-09-16T20:35:27.814Z,97255.09
2022-09-16T20:40:29.738Z,97259.75
2022-09-16T20:45:31.780Z,97258.66
2022-09-16T20:50:38.592Z,97257.91
2022-09-16T20:55:40.440Z,97264.94
2022-09-16T21:00:42.358Z,97257.97
2022-09-16T21:05:44.161Z,97262.28
2022-09-16T21:10:46.028Z,97268.47
2022-09-16T21:15:58.716Z,97265.00
2022-09-16T21:21:09.052Z,97258.38
2022-09-16T21:26:13.068Z,97258.34
2022-09-16T21:31:16.172Z,97266.09
2022-09-16T21:36:19.067Z,97262.19
2022-09-16T21:41:22.452Z,97257.50
2022-09-16T21:46:29.636Z,97259.81
2022-09-16T21:51:35.472Z,97265.28
2022-09-16T21:56:39.271Z,97271.53
2022-09-16T22:01:41.157Z,97275.84
2022-09-16T22:06:43.146Z,97266.91
2022-09-16T22:11:45.049Z,97277.06
2022-09-16T22:16:46.966Z,97272.41
2022-09-16T22:21:51.105Z,97246.41
2022-09-16T22:26:52.976Z,97262.78
2022-09-16T22:31:54.766Z,97262.38
2022-09-16T22:36:56.539Z,97258.50
2022-09-16T22:41:58.306Z,97246.50
2022-09-16T22:47:00.563Z,97249.22
2022-09-16T22:52:02.735Z,97255.44
2022-09-16T22:57:04.548Z,97250.78
2022-09-16T23:02:06.485Z,97245.75
2022-09-16T23:07:10.243Z,97256.25
2022-09-16T23:12:15.996Z,97248.91
2022-09-16T23:17:17.853Z,97245.81
2022-09-16T23:22:19.652Z,97239.19
2022-09-16T23:27:21.452Z,97238.44
2022-09-16T23:32:23.243Z,97239.97
2022-09-16T23:37:25.097Z,97236.09
2022-09-16T23:42:27.646Z,97241.53
2022-09-16T23:47:29.522Z,97239.59
2022-09-16T23:52:31.393Z,97239.59
2022-09-16T23:57:33.207Z,97243.09
